createdAt,value
2022-08-17T00:00:01.617Z,62.50
2022-08-17T00:03:01.195Z,62.40
2022-08-17T00:05:33.286Z,62.40
2022-08-17T00:08:00.767Z,62.50
2022-08-17T00:10:28.196Z,62.60
2022-08-17T00:12:57.420Z,63.80
2022-08-17T00:15:25.273Z,63.30
2022-08-17T00:17:53.108Z,63.60
2022-08-17T00:20:30.382Z,63.80
2022-08-17T00:23:14.632Z,64.00
2022-08-17T00:25:46.980Z,64.20
2022-08-17T00:28:16.158Z,64.30
2022-08-17T00:30:50.794Z,64.30
2022-08-17T00:33:22.532Z,64.40
2022-08-17T00:35:50.252Z,64.50
2022-08-17T00:38:18.069Z,64.60
2022-08-17T00:40:51.903Z,64.70
2022-08-17T00:43:47.058Z,64.70
2022-08-17T00:46:18.695Z,64.70
2022-08-17T00:48:46.883Z,64.90
2022-08-17T00:51:31.576Z,65.10
2022-08-17T00:54:14.045Z,65.00
2022-08-17T00:57:19.989Z,64.70
2022-08-17T01:00:02.422Z,64.80
2022-08-17T01:02:42.711Z,65.10
2022-08-17T01:05:18.632Z,65.50
2022-08-17T01:07:47.761Z,66.40
2022-08-17T01:10:58.227Z,65.70
2022-08-17T01:13:07.088Z,65.90
2022-08-17T01:15:46.794Z,65.40
2022-08-17T01:18:14.790Z,65.50
2022-08-17T01:20:48.589Z,65.40
2022-08-17T01:23:20.451Z,65.80
2022-08-17T01:25:51.199Z,65.90
2022-08-17T01:28:52.954Z,66.30
2022-08-17T01:31:09.581Z,66.40
2022-08-17T01:33:37.278Z,66.60
2022-08-17T01:36:07.323Z,66.70
2022-08-17T01:38:36.485Z,66.80
2022-08-17T01:41:11.332Z,67.10
2022-08-17T01:43:51.281Z,67.40
2022-08-17T01:46:32.025Z,68.10
2022-08-17T01:49:00.458Z,67.30
2022-08-17T01:51:33.156Z,67.50
2022-08-17T01:54:05.236Z,68.10
2022-08-17T01:56:34.932Z,68.10
2022-08-17T01:59:03.031Z,68.10
2022-08-17T02:01:32.677Z,68.50
2022-08-17T02:04:01.908Z,69.10
2022-08-17T02:06:45.072Z,69.40
2022-08-17T02:09:23.439Z,69.60
2022-08-17T02:11:55.001Z,69.60
2022-08-17T02:14:24.836Z,69.80
2022-08-17T02:16:53.192Z,70.00
2022-08-17T02:19:20.520Z,70.40
2022-08-17T02:21:50.404Z,70.50
2022-08-17T02:25:01.188Z,70.50
2022-08-17T02:27:12.252Z,70.50
2022-08-17T02:29:39.817Z,70.30
2022-08-17T02:32:15.216Z,70.40
2022-08-17T02:34:56.059Z,70.20
2022-08-17T02:37:23.642Z,70.30
2022-08-17T02:39:51.096Z,70.40
2022-08-17T02:42:18.620Z,70.60
2022-08-17T02:44:46.040Z,71.10
2022-08-17T02:47:13.387Z,71.50
2022-08-17T02:49:46.277Z,71.80
2022-08-17T02:52:43.822Z,72.10
2022-08-17T02:55:23.680Z,72.30
2022-08-17T02:57:51.176Z,72.20
2022-08-17T03:00:24.937Z,72.20
2022-08-17T03:02:53.078Z,72.40
2022-08-17T03:05:22.173Z,72.70
2022-08-17T03:07:50.167Z,73.00
2022-08-17T03:10:18.918Z,73.30
2022-08-17T03:12:46.691Z,73.50
2022-08-17T03:15:19.752Z,73.80
2022-08-17T03:17:47.835Z,74.00
2022-08-17T03:20:16.641Z,74.40
2022-08-17T03:22:53.142Z,74.30
2022-08-17T03:25:27.881Z,74.20
2022-08-17T03:27:56.893Z,74.30
2022-08-17T03:30:25.967Z,74.30
2022-08-17T03:32:56.172Z,74.40
2022-08-17T03:35:26.770Z,74.50
2022-08-17T03:38:00.173Z,74.50
2022-08-17T03:40:55.692Z,74.40
2022-08-17T03:43:16.911Z,74.50
2022-08-17T03:46:02.705Z,74.60
2022-08-17T03:48:49.097Z,74.70
2022-08-17T03:51:42.076Z,74.60
2022-08-17T03:54:28.880Z,74.40
2022-08-17T03:57:04.228Z,74.10
2022-08-17T03:59:32.198Z,74.00
2022-08-17T04:02:07.466Z,74.00
2022-08-17T04:04:36.217Z,74.10
2022-08-17T04:07:04.342Z,74.00
2022-08-17T04:09:32.001Z,74.00
2022-08-17T04:12:01.212Z,73.90
2022-08-17T04:14:51.489Z,74.10
2022-08-17T04:17:27.130Z,74.30
2022-08-17T04:19:55.662Z,74.50
2022-08-17T04:22:31.378Z,74.30
2022-08-17T04:25:21.799Z,73.60
2022-08-17T04:27:49.203Z,72.80
2022-08-17T04:30:16.964Z,73.00
2022-08-17T04:33:04.290Z,71.80
2022-08-17T04:35:46.673Z,71.30
2022-08-17T04:38:20.259Z,70.50
2022-08-17T04:41:06.706Z,69.10
2022-08-17T04:43:35.344Z,68.10
2022-08-17T04:46:09.537Z,67.60
2022-08-17T04:48:40.206Z,67.10
2022-08-17T04:51:11.755Z,66.60
2022-08-17T04:53:41.793Z,66.10
2022-08-17T04:56:15.980Z,65.50
2022-08-17T04:58:46.090Z,65.10
2022-08-17T05:01:14.253Z,64.70
2022-08-17T05:03:43.046Z,64.40
2022-08-17T05:06:10.885Z,63.40
2022-08-17T05:08:38.888Z,63.10
2022-08-17T05:11:06.605Z,62.80
2022-08-17T05:13:34.275Z,62.30
2022-08-17T05:16:03.537Z,62.00
2022-08-17T05:18:31.245Z,61.70
2022-08-17T05:20:58.814Z,61.50
2022-08-17T05:23:27.507Z,61.30
2022-08-17T05:26:07.259Z,61.00
2022-08-17T05:28:37.948Z,61.00
2022-08-17T05:31:05.822Z,60.80
2022-08-17T05:33:36.491Z,60.60
2022-08-17T05:36:07.190Z,60.50
2022-08-17T05:38:34.907Z,59.90
2022-08-17T05:41:07.152Z,59.70
2022-08-17T05:43:38.050Z,59.60
2022-08-17T05:46:22.232Z,59.70
2022-08-17T05:49:05.623Z,59.20
2022-08-17T05:51:58.065Z,59.20
2022-08-17T05:54:46.292Z,58.20
2022-08-17T05:57:59.857Z,58.10
2022-08-17T06:00:42.053Z,57.80
2022-08-17T06:03:12.847Z,57.60
2022-08-17T06:05:49.897Z,57.20
2022-08-17T06:08:40.169Z,57.00
2022-08-17T06:11:46.987Z,56.80
2022-08-17T06:14:36.241Z,56.40
2022-08-17T06:17:11.520Z,56.20
2022-08-17T06:19:49.014Z,56.00
2022-08-17T06:22:20.134Z,55.70
2022-08-17T06:25:01.011Z,55.50
2022-08-17T06:27:43.332Z,55.40
2022-08-17T06:30:26.359Z,54.80
2022-08-17T06:32:59.586Z,54.40
2022-08-17T06:35:41.340Z,54.60
2022-08-17T06:38:38.440Z,54.50
2022-08-17T06:41:18.440Z,54.30
2022-08-17T06:44:43.537Z,54.10
2022-08-17T06:47:13.636Z,53.60
2022-08-17T06:49:55.575Z,53.20
2022-08-17T06:52:46.799Z,53.20
2022-08-17T06:55:20.331Z,53.00
2022-08-17T06:57:54.081Z,52.80
2022-08-17T07:00:26.010Z,53.00
2022-08-17T07:02:59.684Z,53.00
2022-08-17T07:05:39.035Z,52.70
2022-08-17T07:08:35.027Z,53.10
2022-08-17T07:11:09.705Z,53.40
2022-08-17T07:13:55.168Z,53.50
2022-08-17T07:16:26.201Z,53.90
2022-08-17T07:18:56.040Z,54.10
2022-08-17T07:21:41.436Z,53.80
2022-08-17T07:24:29.384Z,53.90
2022-08-17T07:27:11.338Z,53.40
2022-08-17T07:29:53.589Z,53.50
2022-08-17T07:32:35.754Z,53.00
2022-08-17T07:35:22.101Z,53.00
2022-08-17T07:38:24.800Z,52.70
2022-08-17T07:41:03.022Z,52.60
2022-08-17T07:43:39.785Z,52.30
2022-08-17T07:47:09.108Z,52.80
2022-08-17T07:49:42.720Z,52.30
2022-08-17T07:52:47.660Z,52.10
2022-08-17T07:55:35.230Z,52.00
2022-08-17T07:58:03.539Z,51.90
2022-08-17T08:00:33.049Z,51.50
2022-08-17T08:03:13.736Z,51.40
2022-08-17T08:05:53.720Z,50.90
2022-08-17T08:08:51.656Z,50.60
2022-08-17T08:11:38.349Z,49.90
2022-08-17T08:14:28.565Z,50.00
2022-08-17T08:17:01.129Z,49.10
2022-08-17T08:19:30.401Z,49.20
2022-08-17T08:22:10.896Z,48.70
2022-08-17T08:24:55.414Z,48.40
2022-08-17T08:27:32.757Z,48.50
2022-08-17T08:30:08.872Z,48.20
2022-08-17T08:32:46.454Z,48.30
2022-08-17T08:35:26.942Z,47.90
2022-08-17T08:38:23.466Z,47.40
2022-08-17T08:40:53.844Z,47.30
2022-08-17T08:43:43.541Z,47.00
2022-08-17T08:46:25.036Z,46.60
2022-08-17T08:49:11.945Z,46.50
2022-08-17T08:51:59.664Z,46.60
2022-08-17T08:54:54.013Z,46.70
2022-08-17T08:57:30.896Z,46.90
2022-08-17T09:00:35.956Z,46.00
2022-08-17T09:03:19.124Z,46.10
2022-08-17T09:06:00.245Z,45.90
2022-08-17T09:08:44.551Z,45.60
2022-08-17T09:11:24.620Z,45.40
2022-08-17T09:14:00.774Z,45.60
2022-08-17T09:16:57.398Z,45.20
2022-08-17T09:19:33.915Z,44.90
2022-08-17T09:22:17.524Z,44.40
2022-08-17T09:24:54.672Z,44.70
2022-08-17T09:27:28.213Z,43.90
2022-08-17T09:30:00.643Z,43.80
2022-08-17T09:32:37.932Z,44.10
2022-08-17T09:35:20.270Z,43.70
2022-08-17T09:38:02.578Z,43.50
2022-08-17T09:40:38.542Z,43.80
2022-08-17T09:43:30.914Z,43.10
2022-08-17T09:46:03.478Z,41.20
2022-08-17T09:48:33.517Z,40.50
2022-08-17T09:51:07.166Z,40.00
2022-08-17T09:53:39.377Z,39.50
2022-08-17T09:56:32.429Z,39.70
2022-08-17T09:59:27.767Z,39.20
2022-08-17T10:02:25.734Z,39.00
2022-08-17T10:05:05.253Z,39.00
2022-08-17T10:07:52.603Z,39.00
2022-08-17T10:10:34.209Z,38.80
2022-08-17T10:13:28.448Z,39.00
2022-08-17T10:16:16.110Z,38.20
2022-08-17T10:18:55.302Z,38.30
2022-08-17T10:21:44.528Z,38.40
2022-08-17T10:25:02.021Z,38.50
2022-08-17T10:27:49.114Z,38.10
2022-08-17T10:30:20.522Z,38.00
2022-08-17T10:32:55.915Z,38.20
2022-08-17T10:36:01.417Z,38.40
2022-08-17T10:38:41.319Z,38.50
2022-08-17T10:41:49.517Z,38.10
2022-08-17T10:44:41.477Z,38.50
2022-08-17T10:47:12.821Z,38.70
2022-08-17T10:49:47.527Z,38.70
2022-08-17T10:52:25.173Z,38.50
2022-08-17T10:54:58.574Z,38.20
2022-08-17T10:57:42.789Z,38.00
2022-08-17T11:00:16.209Z,37.70
2022-08-17T11:02:50.298Z,37.60
2022-08-17T11:05:43.722Z,37.70
2022-08-17T11:08:29.783Z,36.80
2022-08-17T11:11:11.291Z,36.30
2022-08-17T11:13:48.379Z,36.60
2022-08-17T11:16:30.630Z,36.40
2022-08-17T11:19:26.511Z,36.70
2022-08-17T11:22:02.153Z,36.50
2022-08-17T11:24:48.008Z,36.70
2022-08-17T11:27:29.741Z,36.00
2022-08-17T11:30:02.778Z,35.60
2022-08-17T11:32:48.832Z,35.80
2022-08-17T11:35:21.944Z,35.60
2022-08-17T11:38:17.380Z,34.90
2022-08-17T11:41:27.572Z,34.90
2022-08-17T11:44:13.171Z,34.90
2022-08-17T11:47:08.275Z,34.90
2022-08-17T11:50:09.409Z,34.70
2022-08-17T11:52:45.997Z,34.20
2022-08-17T11:58:29.467Z,34.80
2022-08-17T12:00:59.434Z,34.70
2022-08-17T12:03:33.298Z,34.30
2022-08-17T12:06:30.498Z,34.60
2022-08-17T12:09:17.413Z,34.40
2022-08-17T12:12:13.223Z,34.30
2022-08-17T12:15:09.454Z,33.90
2022-08-17T12:17:40.892Z,34.10
2022-08-17T12:20:29.014Z,33.20
2022-08-17T12:23:47.512Z,32.70
2022-08-17T12:26:20.630Z,33.00
2022-08-17T12:28:53.025Z,32.70
2022-08-17T12:31:25.762Z,33.00
2022-08-17T12:33:54.436Z,32.80
2022-08-17T12:36:24.909Z,33.40
2022-08-17T12:39:14.248Z,32.70
2022-08-17T12:41:45.452Z,32.50
2022-08-17T12:44:17.666Z,32.40
2022-08-17T12:47:22.698Z,32.30
2022-08-17T12:49:55.105Z,32.70
2022-08-17T12:52:28.989Z,32.60
2022-08-17T12:55:07.042Z,32.50
2022-08-17T12:57:48.309Z,32.50
2022-08-17T13:00:22.097Z,32.50
2022-08-17T13:02:58.784Z,32.60
2022-08-17T13:06:03.460Z,32.50
2022-08-17T13:08:36.158Z,33.30
2022-08-17T13:11:19.709Z,32.90
2022-08-17T13:13:54.353Z,32.60
2022-08-17T13:16:31.789Z,32.70
2022-08-17T13:19:09.149Z,33.20
2022-08-17T13:21:37.943Z,33.30
2022-08-17T13:24:11.410Z,32.90
2022-08-17T13:29:51.328Z,33.10
2022-08-17T13:32:23.242Z,33.00
2022-08-17T13:35:15.314Z,32.90
2022-08-17T13:37:58.379Z,32.70
2022-08-17T13:40:30.680Z,33.00
2022-08-17T13:42:58.805Z,33.00
2022-08-17T13:45:36.094Z,32.70
2022-08-17T13:48:12.376Z,32.60
2022-08-17T13:50:47.363Z,33.20
2022-08-17T13:53:29.591Z,32.60
2022-08-17T13:56:04.633Z,32.40
2022-08-17T13:58:39.045Z,32.50
2022-08-17T14:01:28.090Z,32.40
2022-08-17T14:03:56.559Z,32.00
2022-08-17T14:06:52.095Z,31.90
2022-08-17T14:09:15.636Z,32.00
2022-08-17T14:11:45.225Z,31.90
2022-08-17T14:14:14.236Z,32.00
2022-08-17T14:16:42.428Z,31.90
2022-08-17T14:19:12.760Z,32.20
2022-08-17T14:21:45.701Z,32.10
2022-08-17T14:24:24.061Z,32.00
2022-08-17T14:26:53.120Z,31.70
2022-08-17T14:29:21.945Z,31.70
2022-08-17T14:31:54.322Z,31.90
2022-08-17T14:34:24.166Z,31.80
2022-08-17T14:36:52.228Z,31.80
2022-08-17T14:39:20.666Z,31.60
2022-08-17T14:41:48.578Z,31.60
2022-08-17T14:44:16.253Z,31.90
2022-08-17T14:46:45.016Z,31.40
2022-08-17T14:49:15.615Z,31.80
2022-08-17T14:51:43.866Z,32.10
2022-08-17T14:54:33.633Z,32.30
2022-08-17T14:57:22.309Z,32.30
2022-08-17T14:59:53.234Z,32.30
2022-08-17T15:02:30.028Z,32.10
2022-08-17T15:05:04.278Z,32.20
2022-08-17T15:07:32.100Z,32.20
2022-08-17T15:10:18.915Z,31.80
2022-08-17T15:12:46.252Z,31.90
2022-08-17T15:15:16.636Z,32.40
2022-08-17T15:17:45.885Z,32.90
2022-08-17T15:20:20.248Z,32.30
2022-08-17T15:22:49.973Z,32.30
2022-08-17T15:25:19.120Z,32.40
2022-08-17T15:27:47.501Z,32.80
2022-08-17T15:30:15.729Z,32.40
2022-08-17T15:32:50.758Z,32.80
2022-08-17T15:35:27.062Z,32.80
2022-08-17T15:37:56.194Z,32.70
2022-08-17T15:40:23.480Z,32.80
2022-08-17T15:42:51.176Z,32.80
2022-08-17T15:45:22.483Z,32.90
2022-08-17T15:47:49.927Z,32.70
2022-08-17T15:50:17.528Z,32.90
2022-08-17T15:52:45.040Z,33.00
2022-08-17T15:55:15.202Z,32.80
2022-08-17T15:57:42.541Z,33.00
2022-08-17T16:00:11.160Z,33.10
2022-08-17T16:03:44.866Z,33.20
2022-08-17T16:05:30.164Z,33.20
2022-08-17T16:07:59.799Z,33.40
2022-08-17T16:10:34.810Z,33.50
2022-08-17T16:13:04.562Z,33.30
2022-08-17T16:15:32.276Z,33.00
2022-08-17T16:17:59.811Z,33.00
2022-08-17T16:20:27.683Z,33.00
2022-08-17T16:22:55.457Z,33.00
2022-08-17T16:25:52.980Z,33.00
2022-08-17T16:28:18.067Z,32.80
2022-08-17T16:30:45.484Z,32.80
2022-08-17T16:33:13.920Z,33.00
2022-08-17T16:35:42.203Z,33.80
2022-08-17T16:38:10.804Z,33.10
2022-08-17T16:40:38.152Z,33.10
2022-08-17T16:43:12.197Z,33.30
2022-08-17T16:45:40.731Z,33.50
2022-08-17T16:48:09.779Z,34.30
2022-08-17T16:50:37.558Z,33.80
2022-08-17T16:53:17.798Z,34.00
2022-08-17T16:55:47.078Z,34.10
2022-08-17T16:58:15.750Z,34.10
2022-08-17T17:00:45.250Z,34.30
2022-08-17T17:03:19.865Z,34.50
2022-08-17T17:06:24.908Z,34.80
2022-08-17T17:09:04.130Z,35.10
2022-08-17T17:11:42.467Z,35.30
2022-08-17T17:14:14.582Z,35.50
2022-08-17T17:17:04.696Z,35.70
2022-08-17T17:19:40.743Z,36.00
2022-08-17T17:22:16.467Z,36.10
2022-08-17T17:24:51.772Z,36.50
2022-08-17T17:28:00.106Z,36.50
2022-08-17T17:30:51.522Z,36.60
2022-08-17T17:33:29.771Z,36.80
2022-08-17T17:36:11.837Z,36.80
2022-08-17T17:38:52.751Z,37.00
2022-08-17T17:41:52.695Z,37.90
2022-08-17T17:44:32.217Z,37.50
2022-08-17T17:47:01.618Z,38.00
2022-08-17T17:49:37.087Z,38.10
2022-08-17T17:52:15.542Z,38.10
2022-08-17T17:55:16.584Z,38.30
2022-08-17T17:57:58.640Z,38.50
2022-08-17T18:00:52.211Z,38.70
2022-08-17T18:03:30.443Z,39.00
2022-08-17T18:06:10.465Z,39.20
2022-08-17T18:09:03.668Z,39.40
2022-08-17T18:12:03.836Z,39.50
2022-08-17T18:14:59.852Z,39.80
2022-08-17T18:17:30.201Z,40.00
2022-08-17T18:19:57.597Z,40.20
2022-08-17T18:22:26.136Z,40.50
2022-08-17T18:24:58.201Z,40.80
2022-08-17T18:27:31.678Z,41.30
2022-08-17T18:30:05.859Z,41.20
2022-08-17T18:32:39.986Z,41.20
2022-08-17T18:35:10.443Z,41.20
2022-08-17T18:37:40.846Z,41.30
2022-08-17T18:40:17.806Z,41.30
2022-08-17T18:43:12.714Z,41.40
2022-08-17T18:45:49.313Z,41.40
2022-08-17T18:48:22.330Z,41.40
2022-08-17T18:50:53.751Z,41.90
2022-08-17T18:53:35.235Z,42.00
2022-08-17T18:56:30.973Z,42.00
2022-08-17T18:59:38.778Z,42.20
2022-08-17T19:02:20.686Z,42.30
2022-08-17T19:05:27.059Z,42.40
2022-08-17T19:07:54.902Z,42.60
2022-08-17T19:10:28.742Z,42.70
2022-08-17T19:13:12.753Z,42.80
2022-08-17T19:15:45.099Z,43.10
2022-08-17T19:18:38.906Z,43.20
2022-08-17T19:21:08.067Z,43.40
2022-08-17T19:23:54.101Z,43.60
2022-08-17T19:26:51.025Z,43.90
2022-08-17T19:29:32.184Z,43.90
2022-08-17T19:32:02.163Z,44.40
2022-08-17T19:34:34.443Z,45.10
2022-08-17T19:37:16.607Z,45.00
2022-08-17T19:40:06.634Z,45.50
2022-08-17T19:42:57.276Z,45.70
2022-08-17T19:45:45.957Z,45.90
2022-08-17T19:48:26.047Z,46.20
2022-08-17T19:51:08.653Z,46.40
2022-08-17T19:54:07.520Z,46.70
2022-08-17T19:56:47.479Z,46.70
2022-08-17T19:59:52.249Z,46.80
2022-08-17T20:02:52.809Z,46.90
2022-08-17T20:05:40.632Z,47.10
2022-08-17T20:08:25.753Z,47.50
2022-08-17T20:11:24.672Z,47.80
2022-08-17T20:14:11.669Z,48.30
2022-08-17T20:16:39.209Z,48.50
2022-08-17T20:19:32.244Z,49.00
2022-08-17T20:22:11.761Z,49.10
2022-08-17T20:24:51.021Z,49.50
2022-08-17T20:27:31.389Z,50.00
2022-08-17T20:30:07.234Z,49.80
2022-08-17T20:32:49.481Z,49.80
2022-08-17T20:35:22.429Z,49.90
2022-08-17T20:38:07.896Z,49.80
2022-08-17T20:41:00.832Z,49.80
2022-08-17T20:43:34.462Z,50.10
2022-08-17T20:46:15.661Z,50.10
2022-08-17T20:48:46.675Z,50.30
2022-08-17T20:51:17.334Z,50.50
2022-08-17T20:53:47.721Z,50.60
2022-08-17T20:56:43.293Z,50.90
2022-08-17T20:59:26.194Z,51.20
2022-08-17T21:02:19.374Z,51.10
2022-08-17T21:04:56.526Z,51.10
2022-08-17T21:07:43.557Z,51.00
2022-08-17T21:10:30.543Z,51.30
2022-08-17T21:13:22.957Z,51.30
2022-08-17T21:16:00.489Z,51.40
2022-08-17T21:18:41.803Z,51.50
2022-08-17T21:21:14.058Z,51.50
2022-08-17T21:23:47.245Z,51.60
2022-08-17T21:26:50.328Z,51.70
2022-08-17T21:29:32.015Z,51.90
2022-08-17T21:32:02.782Z,51.90
2022-08-17T21:34:42.709Z,52.00
2022-08-17T21:37:29.678Z,52.50
2022-08-17T21:40:01.373Z,52.60
2022-08-17T21:42:34.777Z,52.50
2022-08-17T21:45:24.698Z,52.50
2022-08-17T21:48:15.597Z,52.60
2022-08-17T21:50:46.330Z,52.80
2022-08-17T21:53:23.823Z,52.80
2022-08-17T21:55:53.145Z,53.10
2022-08-17T21:58:36.813Z,53.10
2022-08-17T22:01:24.780Z,53.30
2022-08-17T22:03:59.125Z,53.60
2022-08-17T22:06:34.287Z,53.50
2022-08-17T22:09:13.238Z,53.80
2022-08-17T22:12:09.218Z,54.00
2022-08-17T22:14:52.667Z,54.00
2022-08-17T22:17:29.077Z,54.20
2022-08-17T22:20:00.264Z,54.20
2022-08-17T22:23:16.916Z,54.40
2022-08-17T22:26:01.860Z,54.60
2022-08-17T22:28:47.548Z,54.50
2022-08-17T22:31:26.202Z,54.60
2022-08-17T22:34:02.321Z,54.60
2022-08-17T22:36:30.912Z,54.70
2022-08-17T22:39:08.591Z,55.00
2022-08-17T22:41:41.256Z,55.60
2022-08-17T22:44:23.474Z,56.00
2022-08-17T22:47:13.996Z,56.40
2022-08-17T22:49:53.305Z,56.70
2022-08-17T22:53:03.266Z,56.90
2022-08-17T22:55:50.892Z,56.80
2022-08-17T22:58:40.791Z,56.90
2022-08-17T23:01:26.676Z,57.10
2022-08-17T23:03:58.851Z,56.40
2022-08-17T23:06:26.441Z,56.90
2022-08-17T23:08:56.571Z,57.30
2022-08-17T23:11:36.629Z,57.60
2022-08-17T23:14:20.060Z,58.00
2022-08-17T23:16:50.288Z,58.20
2022-08-17T23:19:20.937Z,58.40
2022-08-17T23:21:50.789Z,58.60
2022-08-17T23:24:28.651Z,58.60
2022-08-17T23:26:57.382Z,58.80
2022-08-17T23:29:27.615Z,58.80
2022-08-17T23:31:59.698Z,59.00
2022-08-17T23:34:28.535Z,59.20
2022-08-17T23:36:56.879Z,59.20
2022-08-17T23:39:28.188Z,59.40
2022-08-17T23:41:59.126Z,59.40
2022-08-17T23:44:27.340Z,59.40
2022-08-17T23:46:55.377Z,59.50
2022-08-17T23:49:24.933Z,59.50
2022-08-17T23:51:54.807Z,59.40
2022-08-17T23:54:43.837Z,58.80
2022-08-17T23:57:13.302Z,58.90
2022-08-17T23:59:41.344Z,58.60
